Grider Field
KPBF : rendu visible

Aérodrome :











RETROUVEZ-NOUS SUR...

 
LOGIN :

S'inscrire | Disclaimer

   EN    FR    IT 

 









Légende :    VFR   VFR Marginal   IFR   IFR Intensif   IFR Très Intensif
Visi : 
Plafond : 
>= 8 km
>= 3000ft
5 à 8 km
1000 à 3000 ft
1500m à 5 km
500 à 1000 ft
800 à 1500m
200 à 500 ft
< 800m
< 200 ft
Symboles :   Orages  Brouillard  Fortes neiges  Fortes précipitations  Vent > 20 kt






- Altitude de l'aérodrome : 206 ft


KPBF - Grider Field

DERNIER METAR :
  • 171853Z AUTO 09008KT 10SM OVC026 07/04 A3034 RMK AO2 RAE48 PRESFR SLP272 P0000 T00670039

METARs EXPIRÉS :
  • 171753Z AUTO 12009KT 8SM -RA OVC028 07/03 A3039 RMK AO2 RAB35 SLP290 P0000 60000 T00670028 10072 20044 58020
  • 171653Z AUTO 08009KT 10SM OVC029 07/01 A3042 RMK AO2 SLP302 T00720006

TAF KPBF
Valide du 17 à 18h jusqu'au 18 à 18h UTC


171721Z 1718/1818 10008G16KT 6SM BR VCSH OVC025
FM180700 18008G15KT 5SM -SHRA SCT009 BKN015
FM181500 21008KT P6SM OVC015



MET'MAP, la Météo Aéronautique d'un coup d'oeil ! - Copyright ORBIFLY Décembre 2007 - Disclaimer

ORBIFLY MET'MAP TEAM :

Programmation & Développement : Alexandra Zaïnal
Sur une idée originale de : Baudouin d'Aumeries
Assistance à la programmation : Marc-Olivier Méhu
Soutien technique & logistique : Manuel Goepfert

Contact : metmap@orbifly.com




SOURCES & CREDITS :

   NOAA       Earth
Advisory